Terminal Aerodrome Forecast
Issued by NWS

Home | Current Version | Previous Version | Text Only | Print | Product List | Glossary On
Versions: 1 2 3 4 5 6 7 8 9 10 11 12 13 14 15 16 17 18 19 20 21
000
FTUS43 KPAH 160544
TAFCGI
TAF
KCGI 160544Z 1606/1706 08004KT 1SM -DZ BR OVC003
     FM160700 09004KT 1/2SM -DZ FG OVC003
     FM161400 15009KT 2SM -DZ BR OVC007
     FM162200 17012KT 3SM -SHRA BR OVC010
     FM170200 19012KT 4SM -SHRA BR OVC005=

USA.gov is the U.S. government's official web portal to all federal, state and local government web resources and services.